sensor_id;sensor_type;location;lat;lon;timestamp;pressure;altitude;pressure_sealevel;temperature;humidity
11525;BME280;5819;49.648;8.330;2024-02-28T00:01:48;100616.28;;;4.78;100.00
11525;BME280;5819;49.648;8.330;2024-02-28T00:04:16;100617.19;;;4.77;100.00
11525;BME280;5819;49.648;8.330;2024-02-28T00:06:44;100619.03;;;4.68;100.00
11525;BME280;5819;49.648;8.330;2024-02-28T00:09:13;100625.03;;;4.66;100.00
11525;BME280;5819;49.648;8.330;2024-02-28T00:11:44;100623.44;;;4.60;100.00
11525;BME280;5819;49.648;8.330;2024-02-28T00:14:12;100625.09;;;4.61;100.00
11525;BME280;5819;49.648;8.330;2024-02-28T00:16:40;100630.25;;;4.63;100.00
11525;BME280;5819;49.648;8.330;2024-02-28T00:19:08;100625.16;;;4.58;100.00
11525;BME280;5819;49.648;8.330;2024-02-28T00:21:38;100630.31;;;4.58;100.00
11525;BME280;5819;49.648;8.330;2024-02-28T00:24:07;100633.84;;;4.51;100.00
11525;BME280;5819;49.648;8.330;2024-02-28T00:26:35;100631.25;;;4.51;100.00
11525;BME280;5819;49.648;8.330;2024-02-28T00:29:04;100625.25;;;4.52;100.00
11525;BME280;5819;49.648;8.330;2024-02-28T00:31:32;100633.16;;;4.39;100.00
11525;BME280;5819;49.648;8.330;2024-02-28T00:34:00;100641.81;;;4.33;100.00
11525;BME280;5819;49.648;8.330;2024-02-28T00:36:28;100641.94;;;4.22;100.00
11525;BME280;5819;49.648;8.330;2024-02-28T00:39:13;100641.22;;;4.10;100.00
11525;BME280;5819;49.648;8.330;2024-02-28T00:41:41;100643.75;;;4.14;100.00
11525;BME280;5819;49.648;8.330;2024-02-28T00:44:10;100653.13;;;4.20;100.00
11525;BME280;5819;49.648;8.330;2024-02-28T00:46:39;100649.75;;;4.13;100.00
11525;BME280;5819;49.648;8.330;2024-02-28T00:49:06;100650.66;;;4.09;100.00
11525;BME280;5819;49.648;8.330;2024-02-28T00:51:34;100659.28;;;4.05;100.00
11525;BME280;5819;49.648;8.330;2024-02-28T00:54:04;100655.03;;;4.04;100.00
11525;BME280;5819;49.648;8.330;2024-02-28T00:56:32;100655.84;;;4.08;100.00
11525;BME280;5819;49.648;8.330;2024-02-28T00:59:01;100661.03;;;4.02;100.00
11525;BME280;5819;49.648;8.330;2024-02-28T01:01:30;100667.06;;;4.01;100.00
11525;BME280;5819;49.648;8.330;2024-02-28T01:03:58;100666.22;;;3.97;100.00
11525;BME280;5819;49.648;8.330;2024-02-28T01:06:27;100669.69;;;3.96;100.00
11525;BME280;5819;49.648;8.330;2024-02-28T01:08:54;100666.25;;;3.96;100.00
11525;BME280;5819;49.648;8.330;2024-02-28T01:11:22;100667.13;;;3.95;100.00
11525;BME280;5819;49.648;8.330;2024-02-28T01:13:50;100677.41;;;3.96;100.00
11525;BME280;5819;49.648;8.330;2024-02-28T01:16:18;100673.06;;;4.01;100.00
11525;BME280;5819;49.648;8.330;2024-02-28T01:18:47;100673.94;;;4.00;100.00
11525;BME280;5819;49.648;8.330;2024-02-28T01:21:15;100677.38;;;4.01;100.00
11525;BME280;5819;49.648;8.330;2024-02-28T01:23:43;100677.34;;;4.04;100.00
11525;BME280;5819;49.648;8.330;2024-02-28T01:26:10;100672.22;;;4.01;100.00
11525;BME280;5819;49.648;8.330;2024-02-28T01:28:38;100672.19;;;4.02;100.00
11525;BME280;5819;49.648;8.330;2024-02-28T01:31:06;100669.66;;;3.98;100.00
11525;BME280;5819;49.648;8.330;2024-02-28T01:33:34;100673.13;;;3.97;100.00
11525;BME280;5819;49.648;8.330;2024-02-28T01:36:05;100673.09;;;4.00;100.00
11525;BME280;5819;49.648;8.330;2024-02-28T01:38:33;100674.81;;;3.98;100.00
11525;BME280;5819;49.648;8.330;2024-02-28T01:41:01;100679.94;;;3.98;100.00
11525;BME280;5819;49.648;8.330;2024-02-28T01:43:31;100673.94;;;4.00;100.00
11525;BME280;5819;49.648;8.330;2024-02-28T01:46:01;100690.16;;;4.07;100.00
11525;BME280;5819;49.648;8.330;2024-02-28T01:48:32;100688.31;;;4.21;100.00
11525;BME280;5819;49.648;8.330;2024-02-28T01:51:00;100682.47;;;4.04;100.00
11525;BME280;5819;49.648;8.330;2024-02-28T01:53:30;100682.56;;;3.96;100.00
11525;BME280;5819;49.648;8.330;2024-02-28T01:55:58;100680.03;;;3.90;100.00
11525;BME280;5819;49.648;8.330;2024-02-28T01:58:26;100688.66;;;3.88;100.00
11525;BME280;5819;49.648;8.330;2024-02-28T02:00:54;100686.00;;;3.97;100.00
11525;BME280;5819;49.648;8.330;2024-02-28T02:03:23;100692.91;;;3.90;100.00
11525;BME280;5819;49.648;8.330;2024-02-28T02:05:51;100698.94;;;3.88;100.00
11525;BME280;5819;49.648;8.330;2024-02-28T02:08:19;100701.56;;;3.83;100.00
11525;BME280;5819;49.648;8.330;2024-02-28T02:10:48;100698.91;;;3.91;100.00
11525;BME280;5819;49.648;8.330;2024-02-28T02:13:16;100700.69;;;3.84;100.00
11525;BME280;5819;49.648;8.330;2024-02-28T02:15:44;100700.78;;;3.76;100.00
11525;BME280;5819;49.648;8.330;2024-02-28T02:18:11;100698.97;;;3.85;100.00
11525;BME280;5819;49.648;8.330;2024-02-28T02:20:46;100699.91;;;3.76;100.00
11525;BME280;5819;49.648;8.330;2024-02-28T02:23:18;100692.13;;;3.84;100.00
11525;BME280;5819;49.648;8.330;2024-02-28T02:25:47;100687.00;;;3.77;100.00
11525;BME280;5819;49.648;8.330;2024-02-28T02:28:15;100695.63;;;3.75;100.00
11525;BME280;5819;49.648;8.330;2024-02-28T02:30:43;100701.66;;;3.71;100.00
11525;BME280;5819;49.648;8.330;2024-02-28T02:33:11;100699.09;;;3.71;100.00
11525;BME280;5819;49.648;8.330;2024-02-28T02:35:39;100707.78;;;3.61;100.00
11525;BME280;5819;49.648;8.330;2024-02-28T02:38:07;100711.22;;;3.55;100.00
11525;BME280;5819;49.648;8.330;2024-02-28T02:40:37;100709.53;;;3.54;100.00
11525;BME280;5819;49.648;8.330;2024-02-28T02:43:05;100709.50;;;3.57;100.00
11525;BME280;5819;49.648;8.330;2024-02-28T02:45:32;100724.09;;;3.54;100.00
11525;BME280;5819;49.648;8.330;2024-02-28T02:48:00;100719.88;;;3.48;100.00
11525;BME280;5819;49.648;8.330;2024-02-28T02:50:28;100717.22;;;3.56;100.00
11525;BME280;5819;49.648;8.330;2024-02-28T02:52:56;100729.25;;;3.49;100.00
11525;BME280;5819;49.648;8.330;2024-02-28T02:55:24;100724.13;;;3.51;100.00
11525;BME280;5819;49.648;8.330;2024-02-28T02:57:54;100722.41;;;3.51;100.00
11525;BME280;5819;49.648;8.330;2024-02-28T03:00:22;100731.88;;;3.46;100.00
11525;BME280;5819;49.648;8.330;2024-02-28T03:02:50;100726.66;;;3.57;100.00
11525;BME280;5819;49.648;8.330;2024-02-28T03:05:18;100733.53;;;3.56;100.00
11525;BME280;5819;49.648;8.330;2024-02-28T03:07:45;100737.00;;;3.48;100.00
11525;BME280;5819;49.648;8.330;2024-02-28T03:10:14;100733.59;;;3.41;100.00
11525;BME280;5819;49.648;8.330;2024-02-28T03:12:42;100731.94;;;3.39;100.00
11525;BME280;5819;49.648;8.330;2024-02-28T03:15:11;100740.50;;;3.38;100.00
11525;BME280;5819;49.648;8.330;2024-02-28T03:17:40;100743.97;;;3.37;100.00
11525;BME280;5819;49.648;8.330;2024-02-28T03:20:09;100742.22;;;3.40;100.00
11525;BME280;5819;49.648;8.330;2024-02-28T03:22:38;100742.22;;;3.40;100.00
11525;BME280;5819;49.648;8.330;2024-02-28T03:25:07;100743.97;;;3.35;100.00
11525;BME280;5819;49.648;8.330;2024-02-28T03:27:35;100742.22;;;3.37;100.00
11525;BME280;5819;49.648;8.330;2024-02-28T03:30:03;100750.84;;;3.30;100.00
11525;BME280;5819;49.648;8.330;2024-02-28T03:32:33;100746.53;;;3.29;100.00
11525;BME280;5819;49.648;8.330;2024-02-28T03:35:01;100756.84;;;3.26;100.00
11525;BME280;5819;49.648;8.330;2024-02-28T03:37:29;100758.59;;;3.24;100.00
11525;BME280;5819;49.648;8.330;2024-02-28T03:39:57;100767.16;;;3.21;100.00
11525;BME280;5819;49.648;8.330;2024-02-28T03:42:25;100767.22;;;3.15;100.00
11525;BME280;5819;49.648;8.330;2024-02-28T03:44:53;100762.06;;;3.17;100.00
11525;BME280;5819;49.648;8.330;2024-02-28T03:47:21;100764.66;;;3.15;100.00
11525;BME280;5819;49.648;8.330;2024-02-28T03:49:51;100768.97;;;3.09;100.00
11525;BME280;5819;49.648;8.330;2024-02-28T03:52:18;100763.84;;;3.04;100.00
11525;BME280;5819;49.648;8.330;2024-02-28T03:54:46;100771.59;;;3.00;100.00
11525;BME280;5819;49.648;8.330;2024-02-28T03:57:14;100778.44;;;3.01;100.00
11525;BME280;5819;49.648;8.330;2024-02-28T03:59:42;100774.16;;;2.98;100.00
11525;BME280;5819;49.648;8.330;2024-02-28T04:02:10;100782.75;;;2.93;100.00
11525;BME280;5819;49.648;8.330;2024-02-28T04:04:38;100783.63;;;2.92;100.00
11525;BME280;5819;49.648;8.330;2024-02-28T04:07:07;100791.31;;;2.92;100.00
11525;BME280;5819;49.648;8.330;2024-02-28T04:09:35;100781.03;;;2.93;100.00
11525;BME280;5819;49.648;8.330;2024-02-28T04:12:03;100790.47;;;2.91;100.00
11525;BME280;5819;49.648;8.330;2024-02-28T04:14:31;100799.03;;;2.90;100.00
11525;BME280;5819;49.648;8.330;2024-02-28T04:16:59;100801.59;;;2.92;100.00
11525;BME280;5819;49.648;8.330;2024-02-28T04:19:26;100801.59;;;2.90;100.00
11525;BME280;5819;49.648;8.330;2024-02-28T04:21:54;100804.19;;;2.89;100.00
11525;BME280;5819;49.648;8.330;2024-02-28T04:24:24;100793.03;;;2.85;100.00
11525;BME280;5819;49.648;8.330;2024-02-28T04:26:52;100791.34;;;2.82;100.00
11525;BME280;5819;49.648;8.330;2024-02-28T04:29:20;100794.78;;;2.78;100.00
11525;BME280;5819;49.648;8.330;2024-02-28T04:31:48;100796.53;;;2.75;100.00
11525;BME280;5819;49.648;8.330;2024-02-28T04:34:16;100801.66;;;2.73;100.00
11525;BME280;5819;49.648;8.330;2024-02-28T04:36:44;100811.09;;;2.65;100.00
11525;BME280;5819;49.648;8.330;2024-02-28T04:39:12;100817.94;;;2.68;100.00
11525;BME280;5819;49.648;8.330;2024-02-28T04:41:41;100826.50;;;2.65;100.00
11525;BME280;5819;49.648;8.330;2024-02-28T04:44:09;100829.06;;;2.67;100.00
11525;BME280;5819;49.648;8.330;2024-02-28T04:46:37;100831.66;;;2.59;100.00
11525;BME280;5819;49.648;8.330;2024-02-28T04:49:05;100829.94;;;2.54;100.00
11525;BME280;5819;49.648;8.330;2024-02-28T04:51:33;100840.22;;;2.54;100.00
11525;BME280;5819;49.648;8.330;2024-02-28T04:54:01;100837.66;;;2.51;100.00
11525;BME280;5819;49.648;8.330;2024-02-28T04:56:29;100849.66;;;2.49;100.00
11525;BME280;5819;49.648;8.330;2024-02-28T04:58:58;100847.94;;;2.46;100.00
11525;BME280;5819;49.648;8.330;2024-02-28T05:01:26;100849.66;;;2.47;100.00
11525;BME280;5819;49.648;8.330;2024-02-28T05:03:55;100854.78;;;2.38;100.00
11525;BME280;5819;49.648;8.330;2024-02-28T05:06:23;100854.78;;;2.33;100.00
11525;BME280;5819;49.648;8.330;2024-02-28T05:08:51;100869.34;;;2.25;100.00
11525;BME280;5819;49.648;8.330;2024-02-28T05:11:19;100865.94;;;2.26;100.00
11525;BME280;5819;49.648;8.330;2024-02-28T05:13:47;100871.91;;;2.22;100.00
11525;BME280;5819;49.648;8.330;2024-02-28T05:16:16;100871.06;;;2.10;100.00
11525;BME280;5819;49.648;8.330;2024-02-28T05:18:45;100872.78;;;2.14;100.00
11525;BME280;5819;49.648;8.330;2024-02-28T05:21:13;100867.66;;;2.03;100.00
11525;BME280;5819;49.648;8.330;2024-02-28T05:23:41;100877.03;;;1.98;100.00
11525;BME280;5819;49.648;8.330;2024-02-28T05:26:09;100868.50;;;1.88;100.00
11525;BME280;5819;49.648;8.330;2024-02-28T05:28:37;100871.03;;;1.93;100.00
11525;BME280;5819;49.648;8.330;2024-02-28T05:31:22;100885.59;;;1.91;100.00
11525;BME280;5819;49.648;8.330;2024-02-28T05:33:50;100887.31;;;1.87;100.00
11525;BME280;5819;49.648;8.330;2024-02-28T05:36:18;100889.84;;;1.86;100.00
11525;BME280;5819;49.648;8.330;2024-02-28T05:38:47;100895.81;;;1.73;100.00
11525;BME280;5819;49.648;8.330;2024-02-28T05:41:16;100903.47;;;1.65;100.00
11525;BME280;5819;49.648;8.330;2024-02-28T05:43:44;100896.66;;;1.73;100.00
11525;BME280;5819;49.648;8.330;2024-02-28T05:46:12;100893.25;;;1.74;100.00
11525;BME280;5819;49.648;8.330;2024-02-28T05:48:42;100900.94;;;1.73;100.00
11525;BME280;5819;49.648;8.330;2024-02-28T05:51:10;100909.47;;;1.63;100.00
11525;BME280;5819;49.648;8.330;2024-02-28T05:53:38;100907.75;;;1.66;100.00
11525;BME280;5819;49.648;8.330;2024-02-28T05:56:07;100912.06;;;1.67;100.00
11525;BME280;5819;49.648;8.330;2024-02-28T05:58:40;100912.91;;;1.68;100.00
11525;BME280;5819;49.648;8.330;2024-02-28T06:01:09;100910.28;;;1.57;100.00
11525;BME280;5819;49.648;8.330;2024-02-28T06:03:38;100920.59;;;1.69;100.00
11525;BME280;5819;49.648;8.330;2024-02-28T06:06:07;100919.75;;;1.78;100.00
11525;BME280;5819;49.648;8.330;2024-02-28T06:08:37;100925.75;;;1.81;100.00
11525;BME280;5819;49.648;8.330;2024-02-28T06:11:05;100924.03;;;1.85;100.00
11525;BME280;5819;49.648;8.330;2024-02-28T06:13:33;100932.63;;;1.92;100.00
11525;BME280;5819;49.648;8.330;2024-02-28T06:16:02;100944.59;;;1.94;100.00
11525;BME280;5819;49.648;8.330;2024-02-28T06:18:30;100938.59;;;1.95;100.00
11525;BME280;5819;49.648;8.330;2024-02-28T06:21:00;100947.16;;;2.02;100.00
11525;BME280;5819;49.648;8.330;2024-02-28T06:23:29;100944.63;;;2.00;100.00
11525;BME280;5819;49.648;8.330;2024-02-28T06:25:57;100948.03;;;2.02;100.00
11525;BME280;5819;49.648;8.330;2024-02-28T06:28:26;100948.00;;;1.98;100.00
11525;BME280;5819;49.648;8.330;2024-02-28T06:30:53;100949.75;;;2.08;100.00
11525;BME280;5819;49.648;8.330;2024-02-28T06:33:21;100948.03;;;2.13;100.00
11525;BME280;5819;49.648;8.330;2024-02-28T06:35:49;100960.88;;;2.16;100.00
11525;BME280;5819;49.648;8.330;2024-02-28T06:38:17;100966.84;;;2.21;100.00
11525;BME280;5819;49.648;8.330;2024-02-28T06:40:46;100972.88;;;2.23;100.00
11525;BME280;5819;49.648;8.330;2024-02-28T06:43:14;100974.59;;;2.28;100.00
11525;BME280;5819;49.648;8.330;2024-02-28T06:45:42;100973.72;;;2.37;100.00
11525;BME280;5819;49.648;8.330;2024-02-28T06:48:10;100979.72;;;2.45;100.00
11525;BME280;5819;49.648;8.330;2024-02-28T06:50:38;100981.44;;;2.49;100.00
11525;BME280;5819;49.648;8.330;2024-02-28T06:53:06;100979.75;;;2.56;100.00
11525;BME280;5819;49.648;8.330;2024-02-28T06:55:35;100981.47;;;2.60;100.00
11525;BME280;5819;49.648;8.330;2024-02-28T06:58:05;100982.31;;;2.72;100.00
11525;BME280;5819;49.648;8.330;2024-02-28T07:00:33;100978.03;;;2.79;100.00
11525;BME280;5819;49.648;8.330;2024-02-28T07:03:01;100990.00;;;2.85;100.00
11525;BME280;5819;49.648;8.330;2024-02-28T07:05:29;100990.84;;;2.87;100.00
11525;BME280;5819;49.648;8.330;2024-02-28T07:07:56;100979.69;;;2.89;100.00
11525;BME280;5819;49.648;8.330;2024-02-28T07:10:25;100986.56;;;2.98;100.00
11525;BME280;5819;49.648;8.330;2024-02-28T07:12:52;100977.13;;;3.04;100.00
11525;BME280;5819;49.648;8.330;2024-02-28T07:15:22;100976.28;;;3.08;100.00
11525;BME280;5819;49.648;8.330;2024-02-28T07:17:49;100982.22;;;3.27;100.00
11525;BME280;5819;49.648;8.330;2024-02-28T07:20:17;100980.53;;;3.14;100.00
11525;BME280;5819;49.648;8.330;2024-02-28T07:22:46;100977.09;;;3.28;100.00
11525;BME280;5819;49.648;8.330;2024-02-28T07:25:14;100979.63;;;3.41;100.00
11525;BME280;5819;49.648;8.330;2024-02-28T07:27:43;100974.38;;;3.57;100.00
11525;BME280;5819;49.648;8.330;2024-02-28T07:30:11;100972.63;;;3.71;100.00
11525;BME280;5819;49.648;8.330;2024-02-28T07:32:41;100980.31;;;3.81;100.00
11525;BME280;5819;49.648;8.330;2024-02-28T07:35:11;100978.50;;;3.93;100.00
11525;BME280;5819;49.648;8.330;2024-02-28T07:37:39;100983.69;;;3.87;100.00
11525;BME280;5819;49.648;8.330;2024-02-28T07:40:08;100986.22;;;3.96;100.00
11525;BME280;5819;49.648;8.330;2024-02-28T07:42:36;100976.78;;;3.98;100.00
11525;BME280;5819;49.648;8.330;2024-02-28T07:45:05;100980.19;;;4.05;100.00
11525;BME280;5819;49.648;8.330;2024-02-28T07:47:37;100982.72;;;4.11;100.00
11525;BME280;5819;49.648;8.330;2024-02-28T07:50:07;100975.88;;;4.08;100.00
11525;BME280;5819;49.648;8.330;2024-02-28T07:52:35;100979.31;;;4.07;100.00
11525;BME280;5819;49.648;8.330;2024-02-28T07:55:05;100973.25;;;4.10;100.00
11525;BME280;5819;49.648;8.330;2024-02-28T07:57:33;100966.25;;;4.36;100.00
11525;BME280;5819;49.648;8.330;2024-02-28T08:00:01;100968.81;;;4.36;100.00
11525;BME280;5819;49.648;8.330;2024-02-28T08:02:37;100975.50;;;4.60;100.00
11525;BME280;5819;49.648;8.330;2024-02-28T08:05:07;100970.34;;;4.60;100.00
11525;BME280;5819;49.648;8.330;2024-02-28T08:07:36;100971.16;;;4.62;100.00
11525;BME280;5819;49.648;8.330;2024-02-28T08:10:04;100981.44;;;4.66;100.00
11525;BME280;5819;49.648;8.330;2024-02-28T08:12:33;100975.31;;;4.81;100.00
11525;BME280;5819;49.648;8.330;2024-02-28T08:15:01;100983.94;;;4.74;100.00
11525;BME280;5819;49.648;8.330;2024-02-28T08:17:30;100986.63;;;4.62;100.00
11525;BME280;5819;49.648;8.330;2024-02-28T08:19:57;100990.09;;;4.61;100.00
11525;BME280;5819;49.648;8.330;2024-02-28T08:22:27;100987.47;;;4.65;100.00
11525;BME280;5819;49.648;8.330;2024-02-28T08:24:55;100985.63;;;4.78;100.00
11525;BME280;5819;49.648;8.330;2024-02-28T08:27:23;100986.47;;;4.85;100.00
11525;BME280;5819;49.648;8.330;2024-02-28T08:29:52;100974.38;;;4.90;100.00
11525;BME280;5819;49.648;8.330;2024-02-28T08:32:20;100984.66;;;4.93;100.00
11525;BME280;5819;49.648;8.330;2024-02-28T08:34:48;100976.00;;;5.01;100.00
11525;BME280;5819;49.648;8.330;2024-02-28T08:37:17;100975.78;;;5.21;100.00
11525;BME280;5819;49.648;8.330;2024-02-28T08:39:46;100978.19;;;5.36;100.00
11525;BME280;5819;49.648;8.330;2024-02-28T08:42:15;100979.66;;;5.58;100.00
11525;BME280;5819;49.648;8.330;2024-02-28T08:44:43;100973.56;;;5.64;100.00
11525;BME280;5819;49.648;8.330;2024-02-28T08:47:14;100978.69;;;5.69;100.00
11525;BME280;5819;49.648;8.330;2024-02-28T08:49:42;100981.09;;;5.79;100.00
11525;BME280;5819;49.648;8.330;2024-02-28T08:52:11;100972.31;;;5.97;100.00
11525;BME280;5819;49.648;8.330;2024-02-28T08:54:39;100976.34;;;6.18;100.00
11525;BME280;5819;49.648;8.330;2024-02-28T08:57:08;100959.44;;;6.50;100.00
11525;BME280;5819;49.648;8.330;2024-02-28T08:59:37;100961.09;;;6.54;100.00
11525;BME280;5819;49.648;8.330;2024-02-28T09:02:07;100963.78;;;6.48;100.00
11525;BME280;5819;49.648;8.330;2024-02-28T09:04:35;100968.84;;;6.54;100.00
11525;BME280;5819;49.648;8.330;2024-02-28T09:07:03;100975.66;;;6.62;100.00
11525;BME280;5819;49.648;8.330;2024-02-28T09:09:31;100978.03;;;6.74;100.00
11525;BME280;5819;49.648;8.330;2024-02-28T09:12:04;100978.31;;;6.57;100.00
11525;BME280;5819;49.648;8.330;2024-02-28T09:14:35;100986.09;;;6.54;100.00
11525;BME280;5819;49.648;8.330;2024-02-28T09:17:03;100984.16;;;6.68;100.00
11525;BME280;5819;49.648;8.330;2024-02-28T09:19:31;100992.50;;;6.82;100.00
11525;BME280;5819;49.648;8.330;2024-02-28T09:21:58;100998.91;;;6.62;100.00
11525;BME280;5819;49.648;8.330;2024-02-28T09:24:26;101000.44;;;6.73;100.00
11525;BME280;5819;49.648;8.330;2024-02-28T09:26:54;101004.03;;;6.63;100.00
11525;BME280;5819;49.648;8.330;2024-02-28T09:29:22;101003.09;;;6.69;100.00
11525;BME280;5819;49.648;8.330;2024-02-28T09:31:52;100988.63;;;7.07;100.00
11525;BME280;5819;49.648;8.330;2024-02-28T09:34:20;101004.78;;;7.20;100.00
11525;BME280;5819;49.648;8.330;2024-02-28T09:36:49;100995.72;;;7.42;100.00
11525;BME280;5819;49.648;8.330;2024-02-28T09:39:17;100995.94;;;7.33;100.00
11525;BME280;5819;49.648;8.330;2024-02-28T09:41:47;101001.91;;;7.35;100.00
11525;BME280;5819;49.648;8.330;2024-02-28T09:44:17;101006.84;;;7.47;100.00
11525;BME280;5819;49.648;8.330;2024-02-28T09:46:45;101005.09;;;7.49;100.00
11525;BME280;5819;49.648;8.330;2024-02-28T09:49:18;101007.13;;;7.34;100.00
11525;BME280;5819;49.648;8.330;2024-02-28T09:51:49;100992.78;;;7.62;100.00
11525;BME280;5819;49.648;8.330;2024-02-28T09:54:17;100994.38;;;7.68;100.00
11525;BME280;5819;49.648;8.330;2024-02-28T09:56:47;100993.97;;;7.87;100.00
11525;BME280;5819;49.648;8.330;2024-02-28T09:59:16;100999.13;;;7.89;100.00
11525;BME280;5819;49.648;8.330;2024-02-28T10:01:53;100995.16;;;8.13;100.00
11525;BME280;5819;49.648;8.330;2024-02-28T10:04:26;100997.94;;;8.04;100.00
11525;BME280;5819;49.648;8.330;2024-02-28T10:06:55;100997.56;;;7.82;100.00
11525;BME280;5819;49.648;8.330;2024-02-28T10:09:25;101000.47;;;7.65;100.00
11525;BME280;5819;49.648;8.330;2024-02-28T10:11:53;100995.94;;;8.15;100.00
11525;BME280;5819;49.648;8.330;2024-02-28T10:14:21;100990.31;;;8.36;100.00
11525;BME280;5819;49.648;8.330;2024-02-28T10:16:49;100991.34;;;8.30;100.00
11525;BME280;5819;49.648;8.330;2024-02-28T10:19:18;100998.66;;;8.50;100.00
11525;BME280;5819;49.648;8.330;2024-02-28T10:21:47;100991.97;;;8.75;100.00
11525;BME280;5819;49.648;8.330;2024-02-28T10:24:15;100983.47;;;8.70;99.68
11525;BME280;5819;49.648;8.330;2024-02-28T10:26:43;100986.13;;;8.67;99.01
11525;BME280;5819;49.648;8.330;2024-02-28T10:29:12;100984.81;;;8.85;96.19
11525;BME280;5819;49.648;8.330;2024-02-28T10:31:41;100983.63;;;8.98;96.13
11525;BME280;5819;49.648;8.330;2024-02-28T10:34:09;100991.84;;;8.80;97.62
11525;BME280;5819;49.648;8.330;2024-02-28T10:36:37;101000.78;;;8.70;98.64
11525;BME280;5819;49.648;8.330;2024-02-28T10:39:08;101001.03;;;8.95;97.54
11525;BME280;5819;49.648;8.330;2024-02-28T10:41:38;100990.72;;;9.24;95.08
11525;BME280;5819;49.648;8.330;2024-02-28T10:44:06;100999.75;;;9.09;95.83
11525;BME280;5819;49.648;8.330;2024-02-28T10:46:34;101011.63;;;8.85;96.84
11525;BME280;5819;49.648;8.330;2024-02-28T10:49:05;100996.59;;;8.98;96.35
11525;BME280;5819;49.648;8.330;2024-02-28T10:51:34;100999.94;;;8.68;93.25
11525;BME280;5819;49.648;8.330;2024-02-28T10:54:09;101007.03;;;8.95;96.16
11525;BME280;5819;49.648;8.330;2024-02-28T10:56:39;101003.41;;;9.02;94.22
11525;BME280;5819;49.648;8.330;2024-02-28T10:59:09;100987.66;;;9.08;91.93
11525;BME280;5819;49.648;8.330;2024-02-28T11:01:40;100987.06;;;9.31;92.16
11525;BME280;5819;49.648;8.330;2024-02-28T11:04:11;100975.22;;;9.52;91.66
11525;BME280;5819;49.648;8.330;2024-02-28T11:06:48;100976.78;;;9.59;93.09
11525;BME280;5819;49.648;8.330;2024-02-28T11:09:24;100974.66;;;10.01;89.62
11525;BME280;5819;49.648;8.330;2024-02-28T11:11:54;100964.97;;;10.35;88.62
11525;BME280;5819;49.648;8.330;2024-02-28T11:14:23;100952.34;;;10.75;86.73
11525;BME280;5819;49.648;8.330;2024-02-28T11:17:00;100947.09;;;10.77;86.67
11525;BME280;5819;49.648;8.330;2024-02-28T11:19:29;100959.59;;;10.40;87.40
11525;BME280;5819;49.648;8.330;2024-02-28T11:21:58;100964.19;;;10.31;85.30
11525;BME280;5819;49.648;8.330;2024-02-28T11:24:33;100963.28;;;10.60;86.75
11525;BME280;5819;49.648;8.330;2024-02-28T11:27:04;100955.94;;;10.47;82.70
11525;BME280;5819;49.648;8.330;2024-02-28T11:29:34;100937.19;;;10.88;80.40
11525;BME280;5819;49.648;8.330;2024-02-28T11:32:03;100950.06;;;10.40;84.80
11525;BME280;5819;49.648;8.330;2024-02-28T11:34:31;100949.88;;;10.46;84.99
11525;BME280;5819;49.648;8.330;2024-02-28T11:36:59;100961.66;;;10.30;85.07
11525;BME280;5819;49.648;8.330;2024-02-28T11:39:28;100969.03;;;10.16;86.97
11525;BME280;5819;49.648;8.330;2024-02-28T11:42:10;100961.59;;;10.31;86.95
11525;BME280;5819;49.648;8.330;2024-02-28T11:44:40;100957.78;;;9.86;85.16
11525;BME280;5819;49.648;8.330;2024-02-28T11:47:09;100961.63;;;9.73;86.27
11525;BME280;5819;49.648;8.330;2024-02-28T11:49:38;100947.91;;;10.26;84.18
11525;BME280;5819;49.648;8.330;2024-02-28T11:52:06;100929.19;;;10.68;83.81
11525;BME280;5819;49.648;8.330;2024-02-28T11:54:34;100911.94;;;11.15;82.41
11525;BME280;5819;49.648;8.330;2024-02-28T11:57:03;100893.84;;;11.35;76.60
11525;BME280;5819;49.648;8.330;2024-02-28T11:59:32;100894.91;;;11.30;75.59
11525;BME280;5819;49.648;8.330;2024-02-28T12:02:01;100895.59;;;11.58;76.68
11525;BME280;5819;49.648;8.330;2024-02-28T12:04:28;100889.41;;;11.84;74.96
11525;BME280;5819;49.648;8.330;2024-02-28T12:06:57;100899.25;;;11.99;73.83
11525;BME280;5819;49.648;8.330;2024-02-28T12:09:25;100898.25;;;12.01;76.57
11525;BME280;5819;49.648;8.330;2024-02-28T12:12:00;100902.81;;;11.75;78.41
11525;BME280;5819;49.648;8.330;2024-02-28T12:14:29;100895.16;;;12.13;77.85
11525;BME280;5819;49.648;8.330;2024-02-28T12:17:00;100909.00;;;11.70;77.16
11525;BME280;5819;49.648;8.330;2024-02-28T12:19:29;100890.38;;;11.81;72.80
11525;BME280;5819;49.648;8.330;2024-02-28T12:21:57;100898.53;;;11.72;74.85
11525;BME280;5819;49.648;8.330;2024-02-28T12:24:26;100901.06;;;11.75;78.30
11525;BME280;5819;49.648;8.330;2024-02-28T12:26:54;100886.75;;;12.07;75.19
11525;BME280;5819;49.648;8.330;2024-02-28T12:29:22;100865.28;;;12.22;73.08
11525;BME280;5819;49.648;8.330;2024-02-28T12:31:50;100892.09;;;11.82;77.04
11525;BME280;5819;49.648;8.330;2024-02-28T12:34:19;100861.94;;;11.97;72.56
11525;BME280;5819;49.648;8.330;2024-02-28T12:36:49;100849.72;;;11.99;71.02
11525;BME280;5819;49.648;8.330;2024-02-28T12:39:17;100855.56;;;12.26;71.24
11525;BME280;5819;49.648;8.330;2024-02-28T12:41:45;100857.75;;;12.14;70.56
11525;BME280;5819;49.648;8.330;2024-02-28T12:44:15;100843.16;;;12.10;69.99
11525;BME280;5819;49.648;8.330;2024-02-28T12:46:43;100840.56;;;12.51;68.05
11525;BME280;5819;49.648;8.330;2024-02-28T12:49:11;100844.31;;;12.03;69.35
11525;BME280;5819;49.648;8.330;2024-02-28T12:51:42;100833.13;;;12.42;66.71
11525;BME280;5819;49.648;8.330;2024-02-28T12:54:11;100833.59;;;12.72;67.92
11525;BME280;5819;49.648;8.330;2024-02-28T12:56:41;100843.03;;;12.34;68.74
11525;BME280;5819;49.648;8.330;2024-02-28T12:59:11;100844.41;;;12.22;67.67
11525;BME280;5819;49.648;8.330;2024-02-28T13:01:39;100842.25;;;12.32;67.58
11525;BME280;5819;49.648;8.330;2024-02-28T13:04:07;100835.34;;;12.31;67.04
11525;BME280;5819;49.648;8.330;2024-02-28T13:06:35;100832.63;;;12.12;66.96
11525;BME280;5819;49.648;8.330;2024-02-28T13:09:04;100843.25;;;11.41;67.87